createdAt,value
2022-08-07T00:01:00.349Z,100.00
2022-08-07T00:04:15.344Z,100.00
2022-08-07T00:07:19.019Z,100.00
2022-08-07T00:10:26.075Z,100.00
2022-08-07T00:13:28.412Z,100.00
2022-08-07T00:16:31.642Z,100.00
2022-08-07T00:20:01.604Z,100.00
2022-08-07T00:22:55.915Z,100.00
2022-08-07T00:26:02.868Z,100.00
2022-08-07T00:29:12.507Z,100.00
2022-08-07T00:32:14.823Z,100.00
2022-08-07T00:35:23.965Z,100.00
2022-08-07T00:38:31.290Z,100.00
2022-08-07T00:41:37.405Z,100.00
2022-08-07T00:44:47.543Z,100.00
2022-08-07T00:48:08.368Z,100.00
2022-08-07T00:51:14.054Z,100.00
2022-08-07T00:54:16.313Z,100.00
2022-08-07T00:57:26.390Z,100.00
2022-08-07T01:00:29.176Z,100.00
2022-08-07T01:03:55.393Z,100.00
2022-08-07T01:06:56.609Z,100.00
2022-08-07T01:10:06.372Z,100.00
2022-08-07T01:13:16.325Z,100.00
2022-08-07T01:16:30.430Z,100.00
2022-08-07T01:19:34.845Z,100.00
2022-08-07T01:22:57.830Z,100.00
2022-08-07T01:26:05.854Z,100.00
2022-08-07T01:29:09.066Z,100.00
2022-08-07T01:32:12.250Z,100.00
2022-08-07T01:35:18.380Z,100.00
2022-08-07T01:38:29.196Z,100.00
2022-08-07T01:41:36.283Z,100.00
2022-08-07T01:44:39.190Z,100.00
2022-08-07T01:48:18.891Z,100.00
2022-08-07T01:51:24.699Z,100.00
2022-08-07T01:54:37.243Z,100.00
2022-08-07T01:58:05.407Z,100.00
2022-08-07T02:01:59.044Z,100.00
2022-08-07T02:05:06.165Z,100.00
2022-08-07T02:08:17.361Z,100.00
2022-08-07T02:11:57.719Z,100.00
2022-08-07T02:14:44.886Z,100.00
2022-08-07T02:17:56.528Z,100.00
2022-08-07T02:21:06.441Z,100.00
2022-08-07T02:24:10.879Z,100.00
2022-08-07T02:27:22.169Z,100.00
2022-08-07T02:30:27.322Z,100.00
2022-08-07T02:33:41.989Z,100.00
2022-08-07T02:36:59.207Z,100.00
2022-08-07T02:40:29.915Z,100.00
2022-08-07T02:43:30.373Z,100.00
2022-08-07T02:46:36.763Z,100.00
2022-08-07T02:49:58.722Z,100.00
2022-08-07T02:53:10.929Z,100.00
2022-08-07T02:56:21.699Z,100.00
2022-08-07T02:59:27.489Z,100.00
2022-08-07T03:02:33.935Z,100.00
2022-08-07T03:05:37.942Z,100.00
2022-08-07T03:08:41.042Z,100.00
2022-08-07T03:11:52.483Z,100.00
2022-08-07T03:15:07.834Z,100.00
2022-08-07T03:18:11.824Z,100.00
2022-08-07T03:21:19.909Z,100.00
2022-08-07T03:24:27.629Z,100.00
2022-08-07T03:27:59.426Z,100.00
2022-08-07T03:31:17.876Z,100.00
2022-08-07T03:34:22.854Z,100.00
2022-08-07T03:37:45.901Z,100.00
2022-08-07T03:40:57.060Z,100.00
2022-08-07T03:44:00.583Z,100.00
2022-08-07T03:47:13.776Z,100.00
2022-08-07T03:50:23.161Z,100.00
2022-08-07T03:53:49.945Z,100.00
2022-08-07T03:57:03.478Z,100.00
2022-08-07T04:00:09.071Z,100.00
2022-08-07T04:03:25.927Z,100.00
2022-08-07T04:06:36.087Z,100.00
2022-08-07T04:09:44.645Z,100.00
2022-08-07T04:12:49.089Z,100.00
2022-08-07T04:15:53.027Z,100.00
2022-08-07T04:18:59.765Z,100.00
2022-08-07T04:22:08.779Z,100.00
2022-08-07T04:25:21.540Z,100.00
2022-08-07T04:28:26.383Z,100.00
2022-08-07T04:31:39.305Z,100.00
2022-08-07T04:34:52.876Z,100.00
2022-08-07T04:38:05.455Z,100.00
2022-08-07T04:41:10.751Z,100.00
2022-08-07T04:44:22.640Z,100.00
2022-08-07T04:48:02.265Z,100.00
2022-08-07T04:51:47.163Z,100.00
2022-08-07T04:55:01.709Z,100.00
2022-08-07T04:59:09.182Z,100.00
2022-08-07T05:02:25.060Z,100.00
2022-08-07T05:05:59.288Z,100.00
2022-08-07T05:09:18.108Z,100.00
2022-08-07T05:12:57.271Z,100.00
2022-08-07T05:16:10.165Z,100.00
2022-08-07T05:19:17.374Z,100.00
2022-08-07T05:22:28.523Z,100.00
2022-08-07T05:26:10.970Z,100.00
2022-08-07T05:29:04.351Z,100.00
2022-08-07T05:32:09.261Z,100.00
2022-08-07T05:35:14.345Z,100.00
2022-08-07T05:38:59.383Z,100.00
2022-08-07T05:42:01.193Z,100.00
2022-08-07T05:45:14.455Z,100.00
2022-08-07T05:48:31.546Z,100.00
2022-08-07T05:51:40.065Z,100.00
2022-08-07T05:54:53.597Z,100.00
2022-08-07T05:58:00.446Z,100.00
2022-08-07T06:01:05.024Z,100.00
2022-08-07T06:04:10.189Z,100.00
2022-08-07T06:07:22.953Z,100.00
2022-08-07T06:10:31.233Z,100.00
2022-08-07T06:14:12.751Z,100.00
2022-08-07T06:16:57.520Z,100.00
2022-08-07T06:20:12.744Z,100.00
2022-08-07T06:24:37.199Z,100.00
2022-08-07T06:26:51.488Z,100.00
2022-08-07T06:29:54.510Z,100.00
2022-08-07T06:32:57.952Z,100.00
2022-08-07T06:36:06.667Z,100.00
2022-08-07T06:40:12.892Z,100.00
2022-08-07T06:42:58.640Z,100.00
2022-08-07T06:46:20.429Z,100.00
2022-08-07T06:49:34.282Z,100.00
2022-08-07T06:52:57.326Z,100.00
2022-08-07T06:56:07.452Z,100.00
2022-08-07T07:00:14.844Z,100.00
2022-08-07T07:02:54.005Z,100.00
2022-08-07T07:06:04.751Z,100.00
2022-08-07T07:09:24.277Z,100.00
2022-08-07T07:12:50.322Z,100.00
2022-08-07T07:16:01.219Z,100.00
2022-08-07T07:19:54.546Z,100.00
2022-08-07T07:22:40.077Z,100.00
2022-08-07T07:26:33.868Z,100.00
2022-08-07T07:29:56.128Z,100.00
2022-08-07T07:32:40.736Z,100.00
2022-08-07T07:36:03.974Z,100.00
2022-08-07T07:39:10.138Z,100.00
2022-08-07T07:42:17.521Z,100.00
2022-08-07T07:46:37.489Z,100.00
2022-08-07T07:48:50.573Z,100.00
2022-08-07T07:52:15.916Z,100.00
2022-08-07T07:55:20.812Z,100.00
2022-08-07T07:58:29.416Z,100.00
2022-08-07T08:02:03.514Z,100.00
2022-08-07T08:04:57.269Z,99.65
2022-08-07T08:08:01.921Z,98.12
2022-08-07T08:11:16.206Z,97.12
2022-08-07T08:14:26.452Z,95.69
2022-08-07T08:17:57.709Z,93.94
2022-08-07T08:20:54.046Z,92.77
2022-08-07T08:24:36.131Z,92.69
2022-08-07T08:27:40.066Z,91.23
2022-08-07T08:30:51.094Z,89.12
2022-08-07T08:33:57.817Z,87.78
2022-08-07T08:37:03.038Z,87.88
2022-08-07T08:40:16.205Z,87.08
2022-08-07T08:43:42.325Z,86.24
2022-08-07T08:47:14.116Z,83.87
2022-08-07T08:50:41.120Z,83.48
2022-08-07T08:53:49.577Z,82.98
2022-08-07T08:56:54.194Z,80.73
2022-08-07T09:00:08.353Z,80.75
2022-08-07T09:03:49.390Z,80.10
2022-08-07T09:07:11.243Z,78.02
2022-08-07T09:10:32.978Z,76.45
2022-08-07T09:13:38.288Z,76.36
2022-08-07T09:17:05.335Z,75.39
2022-08-07T09:20:34.795Z,74.63
2022-08-07T09:24:32.504Z,72.80
2022-08-07T09:28:00.585Z,69.72
2022-08-07T09:31:11.353Z,68.17
2022-08-07T09:34:29.143Z,67.44
2022-08-07T09:38:10.333Z,64.62
2022-08-07T09:41:25.044Z,59.42
2022-08-07T09:47:20.202Z,58.99
2022-08-07T09:50:02.359Z,57.77
2022-08-07T09:52:34.633Z,57.45
2022-08-07T09:56:05.333Z,57.77
2022-08-07T09:59:35.718Z,56.63
2022-08-07T10:03:08.439Z,57.73
2022-08-07T10:06:56.894Z,56.19
2022-08-07T10:10:53.776Z,54.89
2022-08-07T10:14:01.728Z,52.59
2022-08-07T10:17:21.435Z,51.44
2022-08-07T10:20:52.086Z,48.73
2022-08-07T10:24:05.881Z,47.84
2022-08-07T10:27:45.946Z,48.81
2022-08-07T10:31:05.878Z,47.24
2022-08-07T10:34:50.684Z,46.24
2022-08-07T10:38:21.293Z,46.53
2022-08-07T10:41:47.437Z,46.96
2022-08-07T10:45:44.352Z,47.65
2022-08-07T10:49:49.562Z,44.38
2022-08-07T10:52:59.112Z,44.42
2022-08-07T10:56:45.952Z,46.15
2022-08-07T11:00:09.769Z,46.61
2022-08-07T11:03:51.255Z,45.56
2022-08-07T11:07:15.039Z,44.45
2022-08-07T11:11:01.417Z,44.46
2022-08-07T11:14:45.030Z,42.13
2022-08-07T11:17:53.893Z,42.62
2022-08-07T11:21:04.486Z,42.38
2022-08-07T11:24:15.520Z,41.18
2022-08-07T11:28:01.269Z,39.86
2022-08-07T11:31:13.404Z,40.38
2022-08-07T11:34:24.496Z,43.05
2022-08-07T11:37:38.439Z,39.10
2022-08-07T11:41:31.111Z,38.07
2022-08-07T11:44:52.405Z,37.70
2022-08-07T11:48:30.069Z,38.13
2022-08-07T11:51:51.080Z,35.51
2022-08-07T11:56:11.958Z,38.24
2022-08-07T11:59:00.233Z,35.54
2022-08-07T12:02:33.963Z,33.77
2022-08-07T12:06:00.455Z,36.50
2022-08-07T12:09:54.186Z,37.93
2022-08-07T12:13:45.085Z,38.84
2022-08-07T12:17:04.322Z,39.75
2022-08-07T12:20:18.684Z,40.39
2022-08-07T12:24:07.651Z,41.01
2022-08-07T12:27:28.116Z,39.02
2022-08-07T12:30:51.412Z,38.86
2022-08-07T12:34:01.947Z,40.44
2022-08-07T12:37:23.188Z,39.61
2022-08-07T12:44:04.420Z,38.42
2022-08-07T12:47:32.070Z,39.84
2022-08-07T12:50:48.932Z,41.16
2022-08-07T12:54:02.908Z,41.84
2022-08-07T12:57:20.823Z,43.21
2022-08-07T13:00:50.293Z,41.06
2022-08-07T13:04:04.639Z,38.00
2022-08-07T13:08:12.825Z,36.20
2022-08-07T13:10:54.139Z,36.69
2022-08-07T13:14:12.641Z,34.84
2022-08-07T13:17:44.648Z,34.35
2022-08-07T13:20:52.785Z,31.77
2022-08-07T13:24:35.210Z,32.18
2022-08-07T13:28:11.236Z,31.87
2022-08-07T13:31:13.490Z,33.27
2022-08-07T13:34:55.509Z,34.12
2022-08-07T13:38:23.607Z,35.83
2022-08-07T13:41:41.536Z,37.53
2022-08-07T13:44:45.891Z,39.07
2022-08-07T13:48:10.542Z,40.56
2022-08-07T13:52:27.100Z,41.65
2022-08-07T13:54:57.267Z,40.71
2022-08-07T13:58:28.202Z,40.95
2022-08-07T14:01:55.660Z,41.77
2022-08-07T14:05:07.767Z,40.86
2022-08-07T14:08:11.924Z,40.57
2022-08-07T14:11:17.672Z,40.82
2022-08-07T14:14:28.535Z,40.80
2022-08-07T14:18:23.417Z,40.13
2022-08-07T14:21:20.912Z,43.03
2022-08-07T14:24:41.481Z,44.59
2022-08-07T14:28:12.209Z,41.68
2022-08-07T14:31:13.782Z,42.24
2022-08-07T14:34:21.968Z,43.30
2022-08-07T14:41:12.463Z,36.58
2022-08-07T14:44:18.936Z,37.33
2022-08-07T14:47:23.513Z,37.90
2022-08-07T14:50:31.576Z,36.46
2022-08-07T14:54:05.906Z,35.62
2022-08-07T14:57:19.682Z,37.55
2022-08-07T15:00:30.344Z,35.03
2022-08-07T15:03:52.184Z,33.97
2022-08-07T15:06:56.964Z,32.18
2022-08-07T15:10:04.713Z,33.35
2022-08-07T15:13:25.468Z,35.13
2022-08-07T15:16:54.883Z,32.22
2022-08-07T15:20:30.654Z,31.41
2022-08-07T15:25:02.481Z,30.57
2022-08-07T15:27:05.834Z,32.91
2022-08-07T15:33:36.194Z,33.55
2022-08-07T15:40:11.512Z,31.78
2022-08-07T15:43:33.104Z,31.55
2022-08-07T15:46:55.853Z,30.60
2022-08-07T15:50:06.805Z,31.76
2022-08-07T15:53:52.936Z,31.90
2022-08-07T15:57:00.123Z,31.58
2022-08-07T16:00:06.356Z,32.07
2022-08-07T16:03:46.785Z,30.39
2022-08-07T16:06:55.324Z,31.01
2022-08-07T16:10:18.174Z,31.67
2022-08-07T16:13:58.017Z,31.84
2022-08-07T16:17:03.307Z,31.22
2022-08-07T16:20:33.717Z,30.87
2022-08-07T16:24:34.233Z,31.11
2022-08-07T16:29:18.439Z,31.07
2022-08-07T16:31:57.595Z,29.47
2022-08-07T16:35:52.068Z,28.95
2022-08-07T16:39:33.613Z,30.80
2022-08-07T16:43:10.271Z,29.85
2022-08-07T16:47:09.576Z,30.14
2022-08-07T16:51:13.445Z,29.00
2022-08-07T16:54:37.603Z,30.61
2022-08-07T16:58:04.298Z,30.56
2022-08-07T17:01:15.893Z,29.44
2022-08-07T17:04:27.198Z,27.91
2022-08-07T17:07:52.036Z,29.47
2022-08-07T17:11:07.135Z,28.71
2022-08-07T17:14:19.543Z,28.41
2022-08-07T17:17:53.136Z,27.39
2022-08-07T17:20:56.591Z,27.92
2022-08-07T17:24:23.585Z,28.00
2022-08-07T17:28:08.867Z,29.00
2022-08-07T17:31:17.342Z,29.29
2022-08-07T17:35:08.928Z,28.89
2022-08-07T17:38:33.934Z,28.83
2022-08-07T17:42:01.788Z,29.50
2022-08-07T17:45:14.878Z,29.34
2022-08-07T17:48:31.653Z,28.96
2022-08-07T17:52:00.385Z,28.66
2022-08-07T17:55:12.520Z,30.09
2022-08-07T17:58:30.430Z,30.79
2022-08-07T18:01:56.845Z,31.29
2022-08-07T18:05:23.298Z,32.56
2022-08-07T18:08:31.167Z,34.09
2022-08-07T18:12:07.303Z,35.24
2022-08-07T18:15:23.055Z,36.62
2022-08-07T18:21:02.416Z,37.43
2022-08-07T18:22:06.290Z,37.96
2022-08-07T18:25:23.894Z,38.26
2022-08-07T18:29:00.716Z,39.09
2022-08-07T18:32:34.079Z,39.10
2022-08-07T18:36:32.801Z,40.09
2022-08-07T18:40:07.919Z,40.09
2022-08-07T18:43:42.705Z,40.05
2022-08-07T18:46:59.677Z,41.40
2022-08-07T18:50:39.239Z,42.43
2022-08-07T18:53:55.424Z,43.57
2022-08-07T18:57:30.629Z,45.68
2022-08-07T19:01:02.376Z,45.77
2022-08-07T19:04:54.704Z,46.65
2022-08-07T19:08:11.420Z,47.43
2022-08-07T19:11:35.653Z,48.07
2022-08-07T19:15:03.619Z,48.42
2022-08-07T19:18:35.334Z,48.51
2022-08-07T19:22:05.148Z,48.72
2022-08-07T19:26:21.574Z,50.19
2022-08-07T19:30:57.198Z,50.66
2022-08-07T19:32:17.697Z,51.14
2022-08-07T19:35:33.523Z,51.80
2022-08-07T19:38:52.912Z,53.13
2022-08-07T19:42:05.958Z,55.25
2022-08-07T19:46:06.183Z,56.16
2022-08-07T19:48:55.866Z,59.52
2022-08-07T19:52:00.347Z,59.70
2022-08-07T19:55:03.253Z,63.57
2022-08-07T19:58:13.283Z,63.20
2022-08-07T20:01:18.443Z,66.75
2022-08-07T20:04:42.259Z,64.84
2022-08-07T20:07:51.066Z,69.29
2022-08-07T20:10:56.619Z,71.10
2022-08-07T20:14:07.151Z,73.94
2022-08-07T20:17:18.579Z,76.41
2022-08-07T20:20:26.685Z,76.84
2022-08-07T20:23:41.838Z,79.85
2022-08-07T20:26:52.313Z,79.90
2022-08-07T20:30:00.337Z,81.40
2022-08-07T20:33:08.894Z,79.56
2022-08-07T20:36:22.077Z,83.34
2022-08-07T20:40:02.756Z,83.98
2022-08-07T20:42:57.450Z,85.00
2022-08-07T20:46:26.188Z,86.02
2022-08-07T20:50:00.394Z,86.17
2022-08-07T20:52:51.410Z,81.13
2022-08-07T20:56:00.123Z,80.58
2022-08-07T20:59:06.261Z,80.72
2022-08-07T21:02:55.161Z,82.54
2022-08-07T21:06:21.672Z,80.97
2022-08-07T21:09:51.819Z,77.49
2022-08-07T21:12:58.062Z,75.67
2022-08-07T21:16:03.371Z,73.70
2022-08-07T21:19:10.412Z,75.33
2022-08-07T21:22:19.403Z,74.59
2022-08-07T21:25:56.319Z,76.32
2022-08-07T21:29:15.965Z,76.43
2022-08-07T21:32:43.125Z,80.53
2022-08-07T21:36:32.873Z,82.88
2022-08-07T21:39:51.413Z,82.76
2022-08-07T21:43:10.647Z,84.17
2022-08-07T21:46:24.988Z,87.90
2022-08-07T21:50:02.518Z,89.84
2022-08-07T21:53:26.833Z,88.53
2022-08-07T21:56:47.810Z,89.52
2022-08-07T22:00:07.422Z,92.51
2022-08-07T22:03:30.624Z,93.66
2022-08-07T22:06:38.918Z,93.79
2022-08-07T22:09:54.299Z,95.00
2022-08-07T22:13:08.995Z,93.48
2022-08-07T22:16:44.519Z,96.20
2022-08-07T22:20:02.844Z,97.12
2022-08-07T22:23:21.641Z,99.84
2022-08-07T22:26:44.964Z,99.88
2022-08-07T22:29:58.600Z,98.69
2022-08-07T22:33:09.594Z,100.00
2022-08-07T22:36:29.481Z,100.00
2022-08-07T22:40:09.360Z,100.00
2022-08-07T22:43:17.754Z,100.00
2022-08-07T22:47:03.452Z,100.00
2022-08-07T22:50:28.832Z,100.00
2022-08-07T22:54:07.582Z,100.00
2022-08-07T22:57:41.139Z,100.00
2022-08-07T23:00:57.815Z,100.00
2022-08-07T23:04:34.193Z,100.00
2022-08-07T23:08:12.162Z,100.00
2022-08-07T23:11:48.855Z,100.00
2022-08-07T23:16:04.280Z,100.00
2022-08-07T23:19:47.670Z,100.00
2022-08-07T23:23:02.099Z,100.00
2022-08-07T23:26:25.098Z,100.00
2022-08-07T23:30:38.359Z,100.00
2022-08-07T23:34:21.984Z,100.00
2022-08-07T23:38:01.241Z,100.00
2022-08-07T23:41:19.410Z,100.00
2022-08-07T23:44:47.324Z,100.00
2022-08-07T23:48:02.734Z,100.00
2022-08-07T23:53:01.681Z,100.00
2022-08-07T23:54:55.785Z,100.00
2022-08-07T23:58:21.386Z,100.00
